To NAV CANADA Home Page Login to a new session Search on AWWS site Feedback and Comments Disclaimer Vers la page française équivalente Tips FAQ What's new on the site To the Forecasts and Observations / NOTAM section To "File a Flight Plan" website Publications and other links Update of the User's profile FIC Telephone Numbers My Weather Data Folder Route Weather Data Regional Weather Data Local Weather Data To the Forecasts and Observations / NOTAM section
Request Generated 05/31/2016 at 00:02:02 UTC . Weather information available at that time is displayed.

METAR/TAF

REGINA/REGINA INTL/SK    

METAR CYQR 310000Z 05007KT 300V060 8SM -SHRA OVC065 15/12 A2991 RMK
SC8 CVCTV CLD EMBD SLP141 DENSITY ALT 2300FT=
METAR CYQR 302300Z 33006KT 10SM -SHRA OVC060 17/10 A2988 RMK SC8
CVCTV CLD EMBD SLP132 DENSITY ALT 2600FT=
METAR CYQR 302200Z 32015KT 15SM OVC075 19/09 A2987 RMK AC8 SLP124
DENSITY ALT 2800FT=

TAF CYQR 302338Z 3100/3124 33006KT P6SM -SHRA OVC060 TEMPO 3100/3106
5SM -SHRA BR SCT008 OVC040 PROB30 3100/3106 VRB15G25KT 4SM TSRA
OVC008CB
FM310600 02010KT P6SM -RA SCT008 OVC040 TEMPO 3106/3118 4SM -SHRA
BR BKN008 OVC040
BECMG 3110/3112 01018G28KT
FM311800 36015G25KT P6SM SCT020 BKN050 TEMPO 3118/3122 P6SM -SHRA
BKN020 BKN050
FM312200 36015KT P6SM SCT025 BKN200
RMK NXT FCST BY 310600Z=
Your time UTC time
Weather data provided by Environment Canada and NAV CANADA